createdAt,value
2019-02-21T00:02:04.112Z,10.60
2019-02-21T00:04:44.657Z,10.50
2019-02-21T00:07:25.433Z,10.70
2019-02-21T00:10:05.745Z,10.60
2019-02-21T00:12:46.225Z,10.60
2019-02-21T00:15:26.796Z,10.60
2019-02-21T00:18:07.654Z,10.50
2019-02-21T00:20:48.084Z,10.40
2019-02-21T00:23:28.608Z,10.40
2019-02-21T00:26:09.597Z,10.60
2019-02-21T00:28:38.045Z,10.60
2019-02-21T00:31:25.788Z,10.50
2019-02-21T00:34:13.556Z,10.60
2019-02-21T00:37:01.320Z,10.50
2019-02-21T00:39:49.099Z,10.70
2019-02-21T00:42:36.832Z,10.50
2019-02-21T00:45:24.592Z,10.60
2019-02-21T00:48:12.336Z,10.50
2019-02-21T00:51:00.096Z,10.50
2019-02-21T00:53:47.840Z,10.50
2019-02-21T00:56:35.604Z,10.50
2019-02-21T00:59:23.614Z,10.40
2019-02-21T01:02:11.375Z,10.60
2019-02-21T01:04:59.142Z,10.50
2019-02-21T01:07:46.960Z,10.50
2019-02-21T01:10:34.744Z,10.50
2019-02-21T01:13:22.497Z,10.40
2019-02-21T01:16:10.264Z,10.50
2019-02-21T01:18:58.007Z,10.30
2019-02-21T01:21:45.762Z,10.40
2019-02-21T01:24:33.526Z,10.40
2019-02-21T01:27:21.271Z,10.60
2019-02-21T01:30:02.167Z,10.60
2019-02-21T01:32:42.800Z,10.60
2019-02-21T01:35:23.354Z,10.40
2019-02-21T01:38:04.113Z,10.50
2019-02-21T01:40:45.017Z,10.60
2019-02-21T01:43:25.772Z,10.60
2019-02-21T01:46:06.824Z,10.50
2019-02-21T01:48:47.144Z,10.60
2019-02-21T01:51:27.757Z,10.80
2019-02-21T01:54:08.542Z,10.60
2019-02-21T01:56:49.566Z,10.70
2019-02-21T01:59:30.690Z,10.70
2019-02-21T02:02:11.335Z,10.60
2019-02-21T02:04:52.203Z,10.50
2019-02-21T02:07:32.784Z,10.60
2019-02-21T02:10:13.772Z,10.70
2019-02-21T02:12:54.281Z,10.50
2019-02-21T02:15:35.328Z,10.60
2019-02-21T02:18:16.189Z,10.60
2019-02-21T02:20:56.938Z,10.60
2019-02-21T02:23:37.656Z,10.50
2019-02-21T02:26:18.220Z,10.50
2019-02-21T02:28:58.936Z,10.40
2019-02-21T02:31:39.529Z,10.70
2019-02-21T02:34:20.333Z,10.60
2019-02-21T02:37:00.741Z,10.70
2019-02-21T02:39:41.255Z,10.60
2019-02-21T02:42:22.073Z,10.80
2019-02-21T02:45:03.097Z,10.60
2019-02-21T02:47:43.739Z,10.70
2019-02-21T02:50:24.521Z,10.50
2019-02-21T02:53:05.097Z,10.40
2019-02-21T02:55:45.785Z,10.40
2019-02-21T02:58:26.965Z,10.40
2019-02-21T03:01:07.555Z,10.30
2019-02-21T03:03:48.450Z,10.70
2019-02-21T03:06:29.102Z,10.60
2019-02-21T03:09:11.317Z,10.60
2019-02-21T03:11:52.397Z,10.30
2019-02-21T03:14:33.064Z,10.60
2019-02-21T03:17:13.290Z,10.50
2019-02-21T03:19:53.773Z,10.50
2019-02-21T03:22:34.628Z,10.50
2019-02-21T03:25:15.772Z,10.30
2019-02-21T03:27:56.197Z,10.40
2019-02-21T03:30:36.866Z,10.40
2019-02-21T03:33:17.683Z,10.40
2019-02-21T03:35:57.997Z,10.40
2019-02-21T03:38:38.353Z,10.50
2019-02-21T03:41:18.857Z,10.60
2019-02-21T03:44:00.568Z,10.40
2019-02-21T03:46:40.925Z,10.40
2019-02-21T03:49:21.673Z,10.40
2019-02-21T03:52:02.176Z,10.60
2019-02-21T03:54:42.921Z,10.50
2019-02-21T03:57:23.880Z,10.70
2019-02-21T04:00:04.895Z,10.70
2019-02-21T04:02:45.444Z,10.40
2019-02-21T04:05:26.496Z,10.30
2019-02-21T04:08:07.237Z,10.40
2019-02-21T04:10:47.993Z,10.40
2019-02-21T04:13:28.889Z,10.30
2019-02-21T04:16:09.229Z,10.30
2019-02-21T04:18:50.174Z,10.40
2019-02-21T04:21:31.012Z,10.10
2019-02-21T04:24:11.740Z,10.40
2019-02-21T04:26:52.805Z,10.30
2019-02-21T04:29:34.197Z,10.20
2019-02-21T04:32:17.028Z,10.10
2019-02-21T04:34:57.817Z,10.10
2019-02-21T04:37:38.305Z,10.20
2019-02-21T04:40:18.736Z,10.30
2019-02-21T04:42:59.412Z,10.20
2019-02-21T04:45:40.178Z,10.30
2019-02-21T04:48:20.740Z,10.30
2019-02-21T04:51:01.660Z,10.10
2019-02-21T04:53:42.157Z,10.20
2019-02-21T04:56:22.870Z,10.20
2019-02-21T04:59:06.525Z,10.20
2019-02-21T05:01:45.729Z,10.20
2019-02-21T05:04:26.790Z,10.00
2019-02-21T05:07:07.725Z,10.10
2019-02-21T05:09:57.611Z,10.30
2019-02-21T05:12:31.172Z,10.30
2019-02-21T05:15:14.126Z,10.30
2019-02-21T05:17:54.516Z,10.20
2019-02-21T05:20:35.153Z,10.00
2019-02-21T05:23:15.657Z,10.00
2019-02-21T05:25:56.130Z,10.20
2019-02-21T05:28:36.973Z,10.10
2019-02-21T05:31:36.623Z,10.10
2019-02-21T05:34:36.013Z,10.20
2019-02-21T05:37:18.063Z,10.30
2019-02-21T05:40:17.768Z,10.10
2019-02-21T05:43:17.295Z,10.00
2019-02-21T05:46:02.212Z,10.10
2019-02-21T05:51:42.073Z,10.00
2019-02-21T05:54:24.885Z,10.20
2019-02-21T05:57:10.206Z,10.10
2019-02-21T06:02:53.415Z,10.10
2019-02-21T06:05:34.292Z,10.10
2019-02-21T06:11:14.268Z,10.10
2019-02-21T06:16:51.581Z,10.00
2019-02-21T06:19:51.678Z,10.30
2019-02-21T06:22:34.265Z,10.00
2019-02-21T06:25:34.312Z,9.90
2019-02-21T06:28:33.836Z,10.20
2019-02-21T06:31:14.293Z,10.10
2019-02-21T06:33:55.129Z,10.30
2019-02-21T06:36:36.213Z,10.00
2019-02-21T06:39:16.879Z,10.00
2019-02-21T06:41:59.963Z,10.10
2019-02-21T06:44:40.901Z,10.10
2019-02-21T06:47:21.568Z,10.20
2019-02-21T06:50:02.650Z,10.00
2019-02-21T06:52:43.341Z,9.90
2019-02-21T06:55:24.186Z,10.10
2019-02-21T06:58:04.743Z,10.10
2019-02-21T07:00:46.229Z,10.00
2019-02-21T07:03:29.083Z,10.00
2019-02-21T07:06:09.391Z,9.90
2019-02-21T07:08:50.448Z,9.90
2019-02-21T07:11:31.178Z,9.90
2019-02-21T07:14:11.696Z,10.00
2019-02-21T07:16:52.327Z,10.10
2019-02-21T07:19:32.997Z,9.80
2019-02-21T07:22:17.708Z,9.80
2019-02-21T07:24:57.989Z,10.20
2019-02-21T07:27:38.148Z,10.00
2019-02-21T07:30:20.341Z,9.90
2019-02-21T07:33:01.470Z,10.00
2019-02-21T07:35:42.209Z,9.90
2019-02-21T07:38:22.850Z,10.00
2019-02-21T07:41:03.566Z,10.00
2019-02-21T07:43:44.214Z,10.00
2019-02-21T07:46:25.081Z,10.10
2019-02-21T07:49:05.853Z,10.00
2019-02-21T07:51:46.721Z,10.20
2019-02-21T07:54:27.588Z,10.00
2019-02-21T07:57:08.688Z,10.00
2019-02-21T07:59:49.226Z,10.00
2019-02-21T08:02:29.450Z,10.20
2019-02-21T08:05:10.465Z,10.20
2019-02-21T08:07:51.470Z,10.30
2019-02-21T08:10:33.921Z,10.30
2019-02-21T08:13:14.577Z,10.30
2019-02-21T08:15:55.493Z,10.00
2019-02-21T08:18:36.434Z,10.20
2019-02-21T08:21:17.396Z,10.10
2019-02-21T08:23:59.262Z,10.00
2019-02-21T08:26:40.005Z,10.30
2019-02-21T08:29:20.947Z,10.20
2019-02-21T08:32:01.904Z,10.10
2019-02-21T08:37:28.713Z,10.30
2019-02-21T08:40:16.834Z,10.30
2019-02-21T08:43:04.573Z,10.40
2019-02-21T08:45:52.336Z,10.10
2019-02-21T08:48:40.604Z,10.30
2019-02-21T08:51:29.849Z,10.30
2019-02-21T08:54:17.624Z,10.30
2019-02-21T08:57:05.380Z,10.10
2019-02-21T08:59:53.417Z,10.10
2019-02-21T09:02:41.189Z,10.60
2019-02-21T09:05:29.321Z,10.40
2019-02-21T09:08:10.721Z,10.20
2019-02-21T09:10:51.298Z,10.40
2019-02-21T09:13:32.210Z,10.60
2019-02-21T09:16:12.907Z,10.30
2019-02-21T09:18:53.499Z,10.60
2019-02-21T09:21:34.237Z,10.20
2019-02-21T09:24:26.802Z,10.00
2019-02-21T09:26:59.418Z,9.90
2019-02-21T09:29:40.245Z,10.00
2019-02-21T09:32:20.801Z,10.10
2019-02-21T09:35:01.533Z,10.10
2019-02-21T09:37:42.234Z,10.20
2019-02-21T09:40:23.293Z,10.30
2019-02-21T09:43:03.680Z,10.40
2019-02-21T09:45:44.409Z,10.40
2019-02-21T09:48:25.017Z,10.70
2019-02-21T09:51:05.609Z,10.50
2019-02-21T09:53:46.569Z,10.50
2019-02-21T09:56:30.755Z,10.70
2019-02-21T09:59:10.394Z,10.50
2019-02-21T10:01:51.521Z,10.70
2019-02-21T10:04:32.614Z,10.90
2019-02-21T10:07:12.941Z,10.90
2019-02-21T10:09:53.714Z,11.00
2019-02-21T10:12:34.402Z,10.80
2019-02-21T10:15:15.170Z,10.70
2019-02-21T10:17:55.732Z,10.70
2019-02-21T10:20:36.894Z,10.80
2019-02-21T10:23:17.540Z,10.80
2019-02-21T10:25:58.490Z,10.90
2019-02-21T10:28:38.845Z,10.80
2019-02-21T10:31:19.844Z,10.60
2019-02-21T10:34:00.545Z,11.00
2019-02-21T10:36:41.181Z,10.80
2019-02-21T10:39:22.025Z,10.70
2019-02-21T10:42:02.379Z,10.80
2019-02-21T10:44:43.017Z,10.80
2019-02-21T10:47:23.776Z,10.70
2019-02-21T10:50:04.754Z,10.90
2019-02-21T10:52:45.197Z,10.90
2019-02-21T10:55:25.908Z,11.00
2019-02-21T10:58:06.696Z,10.90
2019-02-21T11:00:47.217Z,10.80
2019-02-21T11:03:27.948Z,10.60
2019-02-21T11:06:08.905Z,10.90
2019-02-21T11:08:49.421Z,10.80
2019-02-21T11:11:30.295Z,10.80
2019-02-21T11:14:10.890Z,10.80
2019-02-21T11:16:51.869Z,10.80
2019-02-21T11:19:32.230Z,10.80
2019-02-21T11:22:13.224Z,10.90
2019-02-21T11:24:54.176Z,10.90
2019-02-21T11:27:34.333Z,10.80
2019-02-21T11:30:15.047Z,10.80
2019-02-21T11:32:56.278Z,10.70
2019-02-21T11:35:37.248Z,10.80
2019-02-21T11:38:17.813Z,10.80
2019-02-21T11:40:58.593Z,10.80
2019-02-21T11:43:39.338Z,10.80
2019-02-21T11:46:19.961Z,10.80
2019-02-21T11:49:00.697Z,10.90
2019-02-21T11:51:41.606Z,11.20
2019-02-21T11:54:26.985Z,10.90
2019-02-21T11:57:05.218Z,11.00
2019-02-21T11:59:45.958Z,10.90
2019-02-21T12:02:26.904Z,10.90
2019-02-21T12:05:17.154Z,11.00
2019-02-21T12:07:49.725Z,10.80
2019-02-21T12:10:30.595Z,10.80
2019-02-21T12:13:11.258Z,11.00
2019-02-21T12:15:52.337Z,11.00
2019-02-21T12:18:33.056Z,10.90
2019-02-21T12:21:14.320Z,11.20
2019-02-21T12:23:55.030Z,11.30
2019-02-21T12:26:35.223Z,11.20
2019-02-21T12:29:16.144Z,10.90
2019-02-21T12:31:57.407Z,11.10
2019-02-21T12:34:37.772Z,11.10
2019-02-21T12:37:18.453Z,11.00
2019-02-21T12:39:58.922Z,11.20
2019-02-21T12:42:39.757Z,11.40
2019-02-21T12:45:20.637Z,11.20
2019-02-21T12:48:01.811Z,11.40
2019-02-21T12:50:44.494Z,11.50
2019-02-21T12:53:28.127Z,11.60
2019-02-21T12:56:08.062Z,11.30
2019-02-21T12:58:49.301Z,11.10
2019-02-21T13:01:29.844Z,11.00
2019-02-21T13:04:10.101Z,11.30
2019-02-21T13:06:50.381Z,11.20
2019-02-21T13:09:31.430Z,11.20
2019-02-21T13:12:11.692Z,11.20
2019-02-21T13:14:52.560Z,11.20
2019-02-21T13:17:33.303Z,11.20
2019-02-21T13:20:13.694Z,11.10
2019-02-21T13:22:54.188Z,11.40
2019-02-21T13:25:34.877Z,11.40
2019-02-21T13:28:15.680Z,11.20
2019-02-21T13:30:56.341Z,11.20
2019-02-21T13:33:36.940Z,11.60
2019-02-21T13:36:17.586Z,11.60
2019-02-21T13:38:58.265Z,11.20
2019-02-21T13:41:39.425Z,11.20
2019-02-21T13:44:20.493Z,11.40
2019-02-21T13:47:01.377Z,11.50
2019-02-21T13:49:42.244Z,11.40
2019-02-21T13:52:22.715Z,11.40
2019-02-21T13:55:03.224Z,11.40
2019-02-21T13:57:44.171Z,11.50
2019-02-21T14:00:24.765Z,11.60
2019-02-21T14:03:05.911Z,11.50
2019-02-21T14:05:46.721Z,11.40
2019-02-21T14:08:27.447Z,11.30
2019-02-21T14:11:08.361Z,11.20
2019-02-21T14:13:49.061Z,11.40
2019-02-21T14:16:29.589Z,11.70
2019-02-21T14:19:10.125Z,12.30
2019-02-21T14:21:50.585Z,12.10
2019-02-21T14:24:36.909Z,12.00
2019-02-21T14:27:14.213Z,12.10
2019-02-21T14:29:55.240Z,12.00
2019-02-21T14:32:35.755Z,11.80
2019-02-21T14:38:29.318Z,12.00
2019-02-21T14:41:09.821Z,11.70
2019-02-21T14:43:50.562Z,11.50
2019-02-21T14:46:31.549Z,11.60
2019-02-21T14:49:12.076Z,11.60
2019-02-21T14:51:52.873Z,11.50
2019-02-21T14:54:33.961Z,11.50
2019-02-21T14:57:15.394Z,11.60
2019-02-21T14:59:56.456Z,11.40
2019-02-21T15:02:37.281Z,11.40
2019-02-21T15:05:18.016Z,11.50
2019-02-21T15:07:59.225Z,11.30
2019-02-21T15:10:40.298Z,11.20
2019-02-21T15:13:20.885Z,11.40
2019-02-21T15:16:01.641Z,11.90
2019-02-21T15:18:41.933Z,11.50
2019-02-21T15:21:22.818Z,11.40
2019-02-21T15:24:03.456Z,11.20
2019-02-21T15:26:46.778Z,11.30
2019-02-21T15:29:27.113Z,11.30
2019-02-21T15:32:11.082Z,11.40
2019-02-21T15:34:50.600Z,11.50
2019-02-21T15:37:31.497Z,11.60
2019-02-21T15:40:12.631Z,11.40
2019-02-21T15:42:53.523Z,11.20
2019-02-21T15:45:34.550Z,11.20
2019-02-21T15:48:15.457Z,11.00
2019-02-21T15:50:56.322Z,11.30
2019-02-21T15:53:36.941Z,11.30
2019-02-21T15:56:17.932Z,11.50
2019-02-21T15:58:58.537Z,11.40
2019-02-21T16:01:46.882Z,11.30
2019-02-21T16:04:22.060Z,11.20
2019-02-21T16:07:03.236Z,11.40
2019-02-21T16:09:43.806Z,11.40
2019-02-21T16:12:12.271Z,11.50
2019-02-21T16:15:00.339Z,11.20
2019-02-21T16:17:49.545Z,11.50
2019-02-21T16:20:37.336Z,11.40
2019-02-21T16:23:25.160Z,11.50
2019-02-21T16:26:12.933Z,11.20
2019-02-21T16:29:00.710Z,11.20
2019-02-21T16:31:29.116Z,11.30
2019-02-21T16:34:16.905Z,11.40
2019-02-21T16:37:04.686Z,11.40
2019-02-21T16:39:52.459Z,11.40
2019-02-21T16:42:40.264Z,11.40
2019-02-21T16:45:39.850Z,11.20
2019-02-21T16:48:17.769Z,11.30
2019-02-21T16:51:05.538Z,11.40
2019-02-21T16:53:53.292Z,11.50
2019-02-21T16:56:41.064Z,11.30
2019-02-21T16:59:28.828Z,11.40
2019-02-21T17:02:16.605Z,11.30
2019-02-21T17:04:57.556Z,11.30
2019-02-21T17:07:38.697Z,11.20
2019-02-21T17:10:19.485Z,11.30
2019-02-21T17:13:00.668Z,11.20
2019-02-21T17:15:41.406Z,11.20
2019-02-21T17:18:22.161Z,11.20
2019-02-21T17:21:02.744Z,11.10
2019-02-21T17:23:43.929Z,11.20
2019-02-21T17:26:24.390Z,11.30
2019-02-21T17:29:05.340Z,11.20
2019-02-21T17:31:46.232Z,11.10
2019-02-21T17:34:26.946Z,11.10
2019-02-21T17:37:07.768Z,11.10
2019-02-21T17:39:48.717Z,11.20
2019-02-21T17:42:29.317Z,11.50
2019-02-21T17:45:09.970Z,11.20
2019-02-21T17:47:50.466Z,11.20
2019-02-21T17:50:31.419Z,11.20
2019-02-21T17:53:12.450Z,11.20
2019-02-21T17:55:53.481Z,11.30
2019-02-21T17:58:34.252Z,11.30
2019-02-21T18:01:14.983Z,11.90
2019-02-21T18:03:55.776Z,11.80
2019-02-21T18:06:36.613Z,11.40
2019-02-21T18:09:16.947Z,11.40
2019-02-21T18:11:57.725Z,11.60
2019-02-21T18:14:41.201Z,11.60
2019-02-21T18:17:22.098Z,11.20
2019-02-21T18:20:02.787Z,11.30
2019-02-21T18:22:43.807Z,11.30
2019-02-21T18:25:24.577Z,11.70
2019-02-21T18:28:05.234Z,11.70
2019-02-21T18:30:45.688Z,11.60
2019-02-21T18:33:26.558Z,11.50
2019-02-21T18:36:07.424Z,11.30
2019-02-21T18:38:48.349Z,11.40
2019-02-21T18:41:16.755Z,11.20
2019-02-21T18:44:04.520Z,11.50
2019-02-21T18:46:52.260Z,11.80
2019-02-21T18:49:40.025Z,11.90
2019-02-21T18:52:28.052Z,11.60
2019-02-21T18:55:15.889Z,11.40
2019-02-21T18:58:03.739Z,11.40
2019-02-21T19:00:51.507Z,11.00
2019-02-21T19:03:39.316Z,11.20
2019-02-21T19:06:27.096Z,11.10
2019-02-21T19:09:14.831Z,11.00
2019-02-21T19:12:02.605Z,10.80
2019-02-21T19:14:50.343Z,10.60
2019-02-21T19:17:38.361Z,10.90
2019-02-21T19:20:26.112Z,10.90
2019-02-21T19:23:06.852Z,11.20
2019-02-21T19:25:47.534Z,11.00
2019-02-21T19:28:28.625Z,11.20
2019-02-21T19:31:09.508Z,10.90
2019-02-21T19:33:49.971Z,11.40
2019-02-21T19:36:30.540Z,11.10
2019-02-21T19:39:11.177Z,11.30
2019-02-21T19:41:51.773Z,11.10
2019-02-21T19:44:32.121Z,10.90
2019-02-21T19:47:00.551Z,11.00
2019-02-21T19:49:48.626Z,11.00
2019-02-21T19:52:36.378Z,11.00
2019-02-21T19:55:24.117Z,11.00
2019-02-21T19:58:11.886Z,11.60
2019-02-21T20:00:59.669Z,11.40
2019-02-21T20:03:47.477Z,11.30
2019-02-21T20:06:35.244Z,11.70
2019-02-21T20:09:22.997Z,11.80
2019-02-21T20:12:10.829Z,11.60
2019-02-21T20:14:58.583Z,11.20
2019-02-21T20:17:46.358Z,11.10
2019-02-21T20:20:27.244Z,11.00
2019-02-21T20:23:07.978Z,11.20
2019-02-21T20:25:48.816Z,11.00
2019-02-21T20:28:29.781Z,11.40
2019-02-21T20:31:10.460Z,11.10
2019-02-21T20:33:51.360Z,11.10
2019-02-21T20:36:32.300Z,10.80
2019-02-21T20:39:13.305Z,11.00
2019-02-21T20:41:54.017Z,11.40
2019-02-21T20:44:35.049Z,11.40
2019-02-21T20:47:16.066Z,11.40
2019-02-21T20:49:56.689Z,12.00
2019-02-21T20:52:37.363Z,12.20
2019-02-21T20:55:18.521Z,11.50
2019-02-21T20:57:59.310Z,11.20
2019-02-21T21:00:40.180Z,11.20
2019-02-21T21:03:20.428Z,11.50
2019-02-21T21:06:01.570Z,11.60
2019-02-21T21:08:44.256Z,11.30
2019-02-21T21:11:24.776Z,11.40
2019-02-21T21:14:05.637Z,11.80
2019-02-21T21:16:46.386Z,12.00
2019-02-21T21:19:27.242Z,11.30
2019-02-21T21:22:07.845Z,11.90
2019-02-21T21:24:36.288Z,12.30
2019-02-21T21:27:24.317Z,12.00
2019-02-21T21:30:33.074Z,11.50
2019-02-21T21:33:21.089Z,11.00
2019-02-21T21:36:10.434Z,10.80
2019-02-21T21:38:58.293Z,11.10
2019-02-21T21:41:46.099Z,11.30
2019-02-21T21:44:33.833Z,11.30
2019-02-21T21:47:21.595Z,11.00
2019-02-21T21:50:30.102Z,11.10
2019-02-21T21:53:17.903Z,11.10
2019-02-21T21:56:05.643Z,11.40
2019-02-21T21:58:53.408Z,11.30
2019-02-21T22:01:41.156Z,11.30
2019-02-21T22:04:28.916Z,11.10
2019-02-21T22:07:16.680Z,11.20
2019-02-21T22:10:25.426Z,11.70
2019-02-21T22:13:13.172Z,11.60
2019-02-21T22:16:00.940Z,11.40
2019-02-21T22:18:48.722Z,11.40
2019-02-21T22:21:36.464Z,11.70
2019-02-21T22:24:16.884Z,11.80
2019-02-21T22:26:57.793Z,11.90
2019-02-21T22:29:38.160Z,12.50
2019-02-21T22:32:18.909Z,12.40
2019-02-21T22:34:59.581Z,12.30
2019-02-21T22:37:40.416Z,12.10
2019-02-21T22:40:21.145Z,11.30
2019-02-21T22:43:01.945Z,11.90
2019-02-21T22:45:42.952Z,11.70
2019-02-21T22:48:23.892Z,11.90
2019-02-21T22:51:04.928Z,12.70
2019-02-21T22:53:45.859Z,11.80
2019-02-21T22:56:26.644Z,11.60
2019-02-21T22:59:07.109Z,11.60
2019-02-21T23:01:48.073Z,11.20
2019-02-21T23:04:28.526Z,10.90
2019-02-21T23:07:09.041Z,10.90
2019-02-21T23:09:49.609Z,11.10
2019-02-21T23:12:30.429Z,11.20
2019-02-21T23:15:10.881Z,11.10
2019-02-21T23:17:51.597Z,11.30
2019-02-21T23:20:32.569Z,11.50
2019-02-21T23:23:13.089Z,11.10
2019-02-21T23:25:53.989Z,11.10
2019-02-21T23:28:34.708Z,11.00
2019-02-21T23:31:15.580Z,10.90
2019-02-21T23:33:58.151Z,11.00
2019-02-21T23:36:39.226Z,11.10
2019-02-21T23:39:19.693Z,10.90
2019-02-21T23:42:00.120Z,11.70
2019-02-21T23:44:41.132Z,12.10
2019-02-21T23:47:21.836Z,12.20
2019-02-21T23:50:02.405Z,12.00
2019-02-21T23:52:43.342Z,12.20
2019-02-21T23:55:23.868Z,12.50
2019-02-21T23:58:04.886Z,11.70
